Time;durP1;ratioP1;P1;durP2;ratioP2;P2;SDS_P1;SDS_P2;PMS_P1;PMS_P2;Temp;Humidity;BMP_temperature;BMP_pressure;BME280_temperature;BME280_humidity;BME280_pressure;Samples;Min_cycle;Max_cycle;Signal;HPM_P1;HPM_P2
2021/12/09 00:00:35;;;;;;;46.87;20.70;;;2.40;99.90;;;;;;5041007;28;20554;-88
2021/12/09 00:03:05;;;;;;;42.87;19.13;;;2.40;99.90;;;;;;5043085;28;20515;-89
2021/12/09 00:05:37;;;;;;;51.23;21.00;;;2.40;99.90;;;;;;5045363;28;20465;-89
2021/12/09 00:08:05;;;;;;;36.03;17.27;;;2.40;99.90;;;;;;5035794;28;20450;-88
2021/12/09 00:10:33;;;;;;;42.93;19.53;;;2.40;99.90;;;;;;5037515;28;20473;-89
2021/12/09 00:13:00;;;;;;;33.77;17.80;;;2.40;99.90;;;;;;5031275;28;20996;-89
2021/12/09 00:15:30;;;;;;;33.70;16.10;;;2.40;99.90;;;;;;5047802;28;20462;-89
2021/12/09 00:17:57;;;;;;;38.07;16.50;;;2.30;99.90;;;;;;5048477;28;20465;-88
2021/12/09 00:20:26;;;;;;;43.07;17.40;;;2.30;99.90;;;;;;5036633;28;20476;-89
2021/12/09 00:22:55;;;;;;;38.97;17.17;;;2.30;99.90;;;;;;5030630;28;20489;-89
2021/12/09 00:25:27;;;;;;;43.03;16.57;;;2.30;99.90;;;;;;5030242;28;20495;-89
2021/12/09 00:27:55;;;;;;;40.67;16.20;;;2.30;99.90;;;;;;5034838;28;20457;-89
2021/12/09 00:30:22;;;;;;;45.50;16.60;;;2.30;99.90;;;;;;5049006;28;21004;-88
2021/12/09 00:32:50;;;;;;;33.67;15.40;;;2.30;99.90;;;;;;5040446;28;20469;-89
2021/12/09 00:35:18;;;;;;;39.53;17.60;;;2.30;99.90;;;;;;5043712;28;20446;-88
2021/12/09 00:37:55;;;;;;;39.87;17.70;;;2.30;99.90;;;;;;5043257;28;20480;-89
2021/12/09 00:40:28;;;;;;;38.57;19.23;;;2.30;99.90;;;;;;5044682;28;20504;-89
2021/12/09 00:42:57;;;;;;;37.57;19.47;;;2.40;99.90;;;;;;5032150;28;20430;-89
2021/12/09 00:45:25;;;;;;;41.33;19.50;;;2.40;99.90;;;;;;5038484;28;21347;-89
2021/12/09 00:47:53;;;;;;;45.10;19.30;;;2.40;99.90;;;;;;5043354;28;20456;-89
2021/12/09 00:50:21;;;;;;;38.73;17.97;;;2.40;99.90;;;;;;5035584;28;20478;-89
2021/12/09 00:52:48;;;;;;;35.50;16.83;;;2.40;99.90;;;;;;5046770;28;20452;-89
2021/12/09 00:55:17;;;;;;;41.00;18.63;;;2.40;99.90;;;;;;5034934;28;20472;-89
2021/12/09 00:57:46;;;;;;;36.37;17.10;;;2.50;99.90;;;;;;5035510;28;20462;-89
2021/12/09 01:00:17;;;;;;;44.90;17.10;;;2.50;99.90;;;;;;5043433;28;20492;-89
2021/12/09 01:02:44;;;;;;;42.63;16.40;;;2.50;99.90;;;;;;5037519;28;20458;-89
2021/12/09 01:05:12;;;;;;;38.83;17.53;;;2.50;99.90;;;;;;5044098;28;20478;-87
2021/12/09 01:07:40;;;;;;;43.10;17.23;;;2.50;99.90;;;;;;5054213;28;20464;-89
2021/12/09 01:10:13;;;;;;;37.47;18.47;;;2.50;99.90;;;;;;5041240;28;20469;-90
2021/12/09 01:12:40;;;;;;;44.33;16.03;;;2.50;99.90;;;;;;5046361;28;20457;-89
2021/12/09 01:15:12;;;;;;;43.13;17.77;;;2.50;99.90;;;;;;5036838;28;20836;-88
2021/12/09 01:17:40;;;;;;;33.33;14.37;;;2.60;99.90;;;;;;5019952;28;20469;-89
2021/12/09 01:20:11;;;;;;;29.93;13.20;;;2.50;99.90;;;;;;5032357;28;20473;-89
2021/12/09 01:22:42;;;;;;;29.20;13.60;;;2.60;99.90;;;;;;5022562;28;20453;-89
2021/12/09 01:25:11;;;;;;;21.83;12.30;;;2.50;99.90;;;;;;5021167;28;20783;-89
2021/12/09 01:27:41;;;;;;;21.27;11.63;;;2.50;99.90;;;;;;5019294;28;20954;-88
2021/12/09 01:30:17;;;;;;;21.20;10.93;;;2.50;99.90;;;;;;5027889;28;20508;-88
2021/12/09 01:32:49;;;;;;;20.63;11.20;;;2.50;99.90;;;;;;5037330;28;20468;-89
2021/12/09 01:35:18;;;;;;;22.70;11.40;;;2.50;99.90;;;;;;5045093;28;20461;-90
2021/12/09 01:37:46;;;;;;;21.57;11.87;;;2.60;99.90;;;;;;5045196;28;20461;-90
2021/12/09 01:40:15;;;;;;;19.00;10.87;;;2.50;99.90;;;;;;5031935;28;20500;-90
2021/12/09 01:42:43;;;;;;;22.67;11.47;;;2.50;99.90;;;;;;5033031;28;20441;-90
2021/12/09 01:45:15;;;;;;;28.23;11.10;;;2.50;99.90;;;;;;5050259;28;20473;-90
2021/12/09 01:47:42;;;;;;;24.60;11.20;;;2.60;99.90;;;;;;5059238;28;20442;-90
2021/12/09 01:50:10;;;;;;;24.03;11.20;;;2.60;99.90;;;;;;5047901;28;20470;-89
2021/12/09 01:52:39;;;;;;;26.23;11.63;;;2.60;99.90;;;;;;5039977;28;20453;-89
2021/12/09 01:55:08;;;;;;;23.20;12.97;;;2.60;99.90;;;;;;5028013;28;20446;-89
2021/12/09 01:57:36;;;;;;;31.37;12.30;;;2.60;99.90;;;;;;5038089;28;20456;-90
2021/12/09 02:00:04;;;;;;;23.03;11.27;;;2.60;99.90;;;;;;5045714;28;20473;-90
2021/12/09 02:02:32;;;;;;;24.20;12.73;;;2.50;99.90;;;;;;5046881;28;20468;-89
2021/12/09 02:04:59;;;;;;;27.73;14.40;;;2.50;99.90;;;;;;5046748;28;20485;-89
2021/12/09 02:07:26;;;;;;;28.10;14.20;;;2.50;99.90;;;;;;5046195;28;20450;-89
2021/12/09 02:09:53;;;;;;;33.73;16.37;;;2.40;99.90;;;;;;5032701;28;20481;-89
2021/12/09 02:12:21;;;;;;;36.30;17.53;;;2.40;99.90;;;;;;5028265;28;20454;-89
2021/12/09 02:14:48;;;;;;;37.00;17.57;;;2.40;99.90;;;;;;5042531;28;20436;-89
2021/12/09 02:17:15;;;;;;;37.83;18.03;;;2.40;99.90;;;;;;5036853;28;20537;-90
2021/12/09 02:19:45;;;;;;;45.40;21.97;;;2.50;99.90;;;;;;5031823;28;20496;-90
2021/12/09 02:22:16;;;;;;;37.83;19.53;;;2.50;99.90;;;;;;5032517;28;20454;-89
2021/12/09 02:24:43;;;;;;;43.00;19.90;;;2.40;99.90;;;;;;5036740;28;20500;-89
2021/12/09 02:27:12;;;;;;;42.03;18.70;;;2.40;99.90;;;;;;5047732;28;20453;-89
2021/12/09 02:29:41;;;;;;;40.40;20.73;;;2.40;99.90;;;;;;5037566;28;20481;-89
2021/12/09 02:32:08;;;;;;;40.40;18.83;;;2.50;99.90;;;;;;5039676;28;20462;-89
2021/12/09 02:34:35;;;;;;;39.83;19.40;;;2.50;99.90;;;;;;5026191;28;20450;-89
2021/12/09 02:37:04;;;;;;;39.67;19.43;;;2.40;99.90;;;;;;5042112;28;20459;-89
2021/12/09 02:39:33;;;;;;;39.97;20.03;;;2.90;99.90;;;;;;5046949;28;20469;-89
2021/12/09 02:42:00;;;;;;;43.93;20.40;;;2.50;99.90;;;;;;5045664;28;20453;-89
2021/12/09 02:44:27;;;;;;;43.57;20.87;;;2.50;99.90;;;;;;5044783;28;20481;-89
2021/12/09 02:46:56;;;;;;;38.80;18.70;;;2.50;99.90;;;;;;5039388;28;20451;-90
2021/12/09 02:49:26;;;;;;;44.27;20.43;;;2.50;99.90;;;;;;5032190;28;20569;-89
2021/12/09 02:51:56;;;;;;;35.90;17.57;;;2.50;99.90;;;;;;5037859;28;20454;-89
2021/12/09 02:54:27;;;;;;;38.07;17.43;;;2.50;99.90;;;;;;5045127;28;20464;-89
2021/12/09 02:56:58;;;;;;;33.97;17.83;;;2.50;99.90;;;;;;5038526;28;20457;-89
2021/12/09 02:59:26;;;;;;;39.50;17.03;;;2.50;99.90;;;;;;5045741;28;20470;-89
2021/12/09 03:01:57;;;;;;;29.30;15.37;;;2.50;99.90;;;;;;5038416;28;20448;-90
2021/12/09 03:04:26;;;;;;;35.37;16.33;;;2.50;99.90;;;;;;5029587;28;20498;-89
2021/12/09 03:06:55;;;;;;;35.20;18.13;;;2.50;99.90;;;;;;5040495;28;20925;-89
2021/12/09 03:09:23;;;;;;;37.37;17.77;;;2.50;99.90;;;;;;5039385;28;20501;-89
2021/12/09 03:11:55;;;;;;;38.83;17.70;;;2.50;99.90;;;;;;5036038;28;20480;-90
2021/12/09 03:14:25;;;;;;;44.43;16.60;;;2.50;99.90;;;;;;5043446;28;20471;-89
2021/12/09 03:16:52;;;;;;;39.23;19.07;;;2.50;99.90;;;;;;5029983;28;20454;-89
2021/12/09 03:19:19;;;;;;;33.33;18.80;;;2.50;99.90;;;;;;5042301;28;20469;-89
2021/12/09 03:21:48;;;;;;;37.17;17.30;;;2.60;99.90;;;;;;5034392;28;20538;-90
2021/12/09 03:24:17;;;;;;;50.10;19.20;;;2.60;99.90;;;;;;5023645;28;20462;-90
2021/12/09 03:26:46;;;;;;;41.00;19.30;;;2.60;99.90;;;;;;5041024;28;20894;-90
2021/12/09 03:29:16;;;;;;;36.93;17.97;;;2.60;99.90;;;;;;5025124;28;20509;-90
2021/12/09 03:31:49;;;;;;;41.23;19.20;;;2.60;99.90;;;;;;5026948;28;20525;-90
2021/12/09 03:34:18;;;;;;;40.83;18.50;;;2.60;99.90;;;;;;5031438;28;20445;-89
2021/12/09 03:36:47;;;;;;;37.03;17.90;;;2.60;99.90;;;;;;5024778;28;20454;-89
2021/12/09 03:39:18;;;;;;;37.70;17.67;;;2.60;99.90;;;;;;5021101;28;20482;-89
2021/12/09 03:41:46;;;;;;;37.23;18.87;;;2.60;99.90;;;;;;5030142;28;20521;-89
2021/12/09 03:44:13;;;;;;;38.60;18.17;;;2.60;99.90;;;;;;5042530;28;20453;-90
2021/12/09 03:46:40;;;;;;;40.13;19.33;;;2.50;99.90;;;;;;5044169;28;20451;-89
2021/12/09 03:49:09;;;;;;;45.50;19.83;;;2.50;99.90;;;;;;5046536;28;20481;-89
2021/12/09 03:51:36;;;;;;;45.53;20.47;;;2.50;99.90;;;;;;5036780;28;20458;-89
2021/12/09 03:54:05;;;;;;;38.27;18.67;;;2.50;99.90;;;;;;5038292;28;20456;-89
2021/12/09 03:56:32;;;;;;;40.97;17.90;;;2.50;99.90;;;;;;5029825;28;20453;-89
2021/12/09 03:58:59;;;;;;;35.97;17.10;;;2.50;99.90;;;;;;5035508;28;20473;-89
2021/12/09 04:01:26;;;;;;;39.30;18.97;;;2.50;99.90;;;;;;5042544;28;20468;-89
2021/12/09 04:03:55;;;;;;;40.43;19.00;;;2.50;99.90;;;;;;5044866;28;20448;-89
2021/12/09 04:06:23;;;;;;;39.40;18.17;;;2.50;99.90;;;;;;5034222;28;20497;-90
2021/12/09 04:08:50;;;;;;;41.20;18.80;;;2.50;99.90;;;;;;5045701;28;20477;-89
2021/12/09 04:11:18;;;;;;;45.20;20.23;;;2.50;99.90;;;;;;5040617;28;20643;-89
2021/12/09 04:13:47;;;;;;;40.30;19.07;;;2.50;99.90;;;;;;5039820;28;20450;-90
2021/12/09 04:16:14;;;;;;;41.50;19.43;;;2.50;99.90;;;;;;5028354;28;20671;-89
2021/12/09 04:18:41;;;;;;;34.50;17.57;;;2.50;99.90;;;;;;5026387;28;20454;-89
2021/12/09 04:21:08;;;;;;;39.53;18.60;;;2.50;99.90;;;;;;5039380;28;20519;-88
2021/12/09 04:23:37;;;;;;;40.73;18.80;;;2.50;99.90;;;;;;5046564;28;20458;-90
2021/12/09 04:26:06;;;;;;;36.03;18.10;;;2.50;99.90;;;;;;5040021;28;20478;-89
2021/12/09 04:28:34;;;;;;;37.40;17.60;;;2.50;99.90;;;;;;5028334;28;20557;-89
2021/12/09 04:31:02;;;;;;;35.73;17.50;;;2.50;99.90;;;;;;5038407;28;20481;-89
2021/12/09 04:33:30;;;;;;;36.27;18.30;;;2.50;99.90;;;;;;5028973;28;20537;-89
2021/12/09 04:35:58;;;;;;;36.73;18.30;;;2.50;99.90;;;;;;5045891;28;20458;-90
2021/12/09 04:38:27;;;;;;;34.57;16.63;;;2.50;99.90;;;;;;5028847;28;20473;-90
2021/12/09 04:40:56;;;;;;;34.73;16.37;;;2.50;99.90;;;;;;5033587;28;20453;-88
2021/12/09 04:43:23;;;;;;;33.90;17.83;;;2.60;99.90;;;;;;5044616;28;20456;-89
2021/12/09 04:45:50;;;;;;;33.47;17.33;;;2.60;99.90;;;;;;5045379;28;20488;-89
2021/12/09 04:48:17;;;;;;;42.17;18.17;;;2.60;99.90;;;;;;5044787;28;20453;-89
2021/12/09 04:50:46;;;;;;;32.27;16.13;;;2.60;99.90;;;;;;5037172;28;20476;-89
2021/12/09 04:53:13;;;;;;;34.43;17.90;;;2.60;99.90;;;;;;5031452;28;20492;-89
2021/12/09 04:55:40;;;;;;;30.53;16.67;;;2.70;99.90;;;;;;5044238;28;20459;-89
2021/12/09 04:58:09;;;;;;;31.87;17.20;;;2.80;99.90;;;;;;5037759;28;20450;-89
2021/12/09 05:00:38;;;;;;;30.17;17.50;;;2.70;99.90;;;;;;5030139;28;20480;-89
2021/12/09 05:03:09;;;;;;;39.33;17.77;;;2.70;99.90;;;;;;5041059;28;20492;-89
2021/12/09 05:05:40;;;;;;;41.83;18.13;;;2.70;99.90;;;;;;5035605;28;20473;-89
2021/12/09 05:08:09;;;;;;;30.63;16.37;;;2.70;99.90;;;;;;5048705;28;20583;-89
2021/12/09 05:10:52;;;;;;;35.00;16.17;;;2.70;99.90;;;;;;5031530;28;20474;-89
2021/12/09 05:13:24;;;;;;;29.97;17.30;;;2.70;99.90;;;;;;5031545;28;20458;-89
2021/12/09 05:15:52;;;;;;;40.03;17.50;;;2.70;99.90;;;;;;5034020;28;20446;-89
2021/12/09 05:18:20;;;;;;;35.07;17.50;;;2.70;99.90;;;;;;5047547;28;20453;-90
2021/12/09 05:20:47;;;;;;;26.50;15.20;;;2.70;99.90;;;;;;5039881;28;20489;-89
2021/12/09 05:23:17;;;;;;;39.33;17.23;;;2.70;99.90;;;;;;5040550;28;20445;-90
2021/12/09 05:25:44;;;;;;;31.70;17.40;;;2.70;99.90;;;;;;5036145;28;20560;-89
2021/12/09 05:28:15;;;;;;;30.77;15.67;;;2.70;99.90;;;;;;5028275;28;20493;-89
2021/12/09 05:33:31;;;;;;;42.20;16.73;;;2.70;99.90;;;;;;5040146;28;20906;-90
2021/12/09 05:35:58;;;;;;;30.20;15.87;;;2.70;99.90;;;;;;5034496;28;20454;-89
2021/12/09 05:38:26;;;;;;;29.00;15.80;;;2.70;99.90;;;;;;5051578;28;20484;-90
2021/12/09 05:40:56;;;;;;;31.83;16.97;;;2.70;99.90;;;;;;5040813;28;20454;-89
2021/12/09 05:43:23;;;;;;;32.43;16.20;;;2.70;99.90;;;;;;5031903;28;20953;-89
2021/12/09 05:45:52;;;;;;;41.73;16.13;;;2.70;99.90;;;;;;5036256;28;20509;-89
2021/12/09 05:48:19;;;;;;;31.33;16.00;;;2.70;99.90;;;;;;5029652;28;20454;-89
2021/12/09 05:50:47;;;;;;;32.13;17.30;;;2.60;99.90;;;;;;5038819;28;20466;-89
2021/12/09 05:53:14;;;;;;;34.13;17.20;;;2.50;99.90;;;;;;5040662;28;20455;-89
2021/12/09 05:55:43;;;;;;;33.03;16.93;;;2.50;99.90;;;;;;5033744;28;20488;-89
2021/12/09 05:58:11;;;;;;;30.23;16.43;;;2.40;99.90;;;;;;5035331;28;20478;-89
2021/12/09 06:00:38;;;;;;;28.67;16.20;;;2.40;99.90;;;;;;5040923;28;20477;-89
2021/12/09 06:03:07;;;;;;;36.30;17.33;;;2.30;99.90;;;;;;5046082;28;20484;-90
2021/12/09 06:05:35;;;;;;;34.70;15.70;;;2.30;99.90;;;;;;5032780;28;20487;-90
2021/12/09 06:08:03;;;;;;;27.20;15.47;;;2.20;99.90;;;;;;5047081;28;20468;-90
2021/12/09 06:10:34;;;;;;;25.60;14.60;;;2.20;99.90;;;;;;5055624;28;20540;-90
2021/12/09 06:13:01;;;;;;;29.50;14.67;;;2.10;99.90;;;;;;5048295;28;20458;-88
2021/12/09 06:15:28;;;;;;;28.07;15.50;;;2.30;99.90;;;;;;5039398;28;20453;-88
2021/12/09 06:17:55;;;;;;;25.90;14.80;;;2.00;99.90;;;;;;5033657;28;20458;-90
2021/12/09 06:20:25;;;;;;;36.40;15.03;;;2.00;99.90;;;;;;5037313;28;20477;-89
2021/12/09 06:22:52;;;;;;;27.03;15.40;;;1.90;99.90;;;;;;5043677;28;20467;-89
2021/12/09 06:25:20;;;;;;;31.10;14.90;;;1.90;99.90;;;;;;5027911;28;20566;-89
2021/12/09 06:27:48;;;;;;;29.50;14.63;;;1.90;99.90;;;;;;5029193;28;20462;-89
2021/12/09 06:30:17;;;;;;;27.87;14.90;;;1.80;99.90;;;;;;5042357;28;20477;-89
2021/12/09 06:32:44;;;;;;;29.83;14.20;;;1.80;99.90;;;;;;5046200;28;20457;-90
2021/12/09 06:35:12;;;;;;;28.40;14.23;;;1.70;99.90;;;;;;5033025;28;20443;-88
2021/12/09 06:37:44;;;;;;;27.07;15.00;;;1.70;99.90;;;;;;5027925;28;20458;-89
2021/12/09 06:40:13;;;;;;;38.10;15.10;;;1.60;99.90;;;;;;5036789;28;20473;-89
2021/12/09 06:42:40;;;;;;;24.27;13.77;;;1.60;99.90;;;;;;5028945;28;20485;-89
2021/12/09 06:47:32;;;;;;;28.97;14.47;;;1.50;99.90;;;;;;5057673;23;20515;-73
2021/12/09 06:49:59;;;;;;;31.03;13.57;;;1.50;99.90;;;;;;5050872;28;20241;-73
2021/12/09 06:52:26;;;;;;;33.77;14.67;;;1.50;99.90;;;;;;5048949;28;20546;-74
2021/12/09 06:54:54;;;;;;;43.57;15.80;;;1.40;99.90;;;;;;5040513;28;20494;-75
2021/12/09 06:57:20;;;;;;;24.47;13.67;;;1.40;99.90;;;;;;5034078;28;20926;-74
2021/12/09 06:59:47;;;;;;;23.57;11.40;;;1.20;99.90;;;;;;5033214;28;21011;-73
2021/12/09 07:02:13;;;;;;;20.30;10.43;;;1.20;99.90;;;;;;5030930;28;20453;-73
2021/12/09 07:04:40;;;;;;;18.80;10.43;;;1.20;99.90;;;;;;5033010;28;20900;-72
2021/12/09 07:07:07;;;;;;;22.10;10.83;;;1.20;99.90;;;;;;5043959;28;20492;-73
2021/12/09 07:09:34;;;;;;;25.40;10.60;;;1.10;99.90;;;;;;5031093;28;20453;-74
2021/12/09 07:12:02;;;;;;;25.43;9.30;;;1.10;99.90;;;;;;5032156;28;20511;-73
2021/12/09 07:14:28;;;;;;;20.33;9.47;;;1.10;99.90;;;;;;5038380;28;20964;-73
2021/12/09 07:16:55;;;;;;;20.50;10.37;;;1.10;99.90;;;;;;5030745;28;20818;-72
2021/12/09 07:19:21;;;;;;;20.53;10.67;;;1.20;99.90;;;;;;5032869;28;20921;-73
2021/12/09 07:21:48;;;;;;;21.03;10.37;;;1.10;99.90;;;;;;5031610;28;20674;-71
2021/12/09 07:24:15;;;;;;;26.53;12.27;;;1.10;99.90;;;;;;5054559;23;20651;-66
2021/12/09 07:26:42;;;;;;;25.87;13.30;;;1.00;99.90;;;;;;5025205;28;20512;-67
2021/12/09 07:29:10;;;;;;;25.00;12.67;;;1.10;99.90;;;;;;5021367;28;20454;-66
2021/12/09 07:31:37;;;;;;;25.50;13.30;;;1.00;99.90;;;;;;5019062;28;20844;-67
2021/12/09 07:34:03;;;;;;;29.50;13.20;;;1.00;99.90;;;;;;5021007;28;20989;-68
2021/12/09 07:36:30;;;;;;;27.90;13.47;;;1.00;99.90;;;;;;5021038;28;20455;-68
2021/12/09 07:38:57;;;;;;;28.90;13.07;;;0.90;99.90;;;;;;5016758;28;21013;-67
2021/12/09 07:41:24;;;;;;;25.23;13.40;;;1.00;99.90;;;;;;5021930;28;20457;-66
2021/12/09 07:43:51;;;;;;;23.23;12.30;;;1.00;99.90;;;;;;5028085;28;20519;-69
2021/12/09 07:46:19;;;;;;;30.07;13.53;;;1.00;99.90;;;;;;5016373;28;20912;-70
2021/12/09 07:48:46;;;;;;;25.50;13.13;;;1.00;99.90;;;;;;5027089;28;21012;-69
2021/12/09 07:51:12;;;;;;;35.97;13.40;;;1.00;99.90;;;;;;5028976;28;21027;-69
2021/12/09 07:53:40;;;;;;;29.60;13.73;;;1.10;99.90;;;;;;5017657;28;20469;-69
2021/12/09 07:56:06;;;;;;;26.33;13.10;;;1.10;99.90;;;;;;5016984;28;20525;-70
2021/12/09 07:58:35;;;;;;;51.93;15.10;;;1.20;99.90;;;;;;5015510;28;21135;-69
2021/12/09 08:01:01;;;;;;;35.77;14.37;;;1.10;99.90;;;;;;5019405;28;20457;-70
2021/12/09 08:03:29;;;;;;;35.13;14.63;;;1.10;99.90;;;;;;5017191;28;20593;-69
2021/12/09 08:05:57;;;;;;;46.30;14.17;;;1.10;99.90;;;;;;5018670;28;20518;-69
2021/12/09 08:08:24;;;;;;;55.80;14.77;;;1.20;99.90;;;;;;5028332;28;20945;-69
2021/12/09 08:10:50;;;;;;;54.70;14.47;;;1.10;99.90;;;;;;5012197;28;20485;-68
2021/12/09 08:13:17;;;;;;;52.30;12.80;;;1.10;99.90;;;;;;5022166;28;20457;-68
2021/12/09 08:15:49;;;;;;;39.67;14.17;;;1.00;99.90;;;;;;5027684;28;20553;-69
2021/12/09 08:18:27;;;;;;;65.37;15.13;;;1.00;99.90;;;;;;5011363;28;20469;-69
2021/12/09 08:20:57;;;;;;;53.43;13.93;;;1.10;99.90;;;;;;5019230;28;20457;-67
2021/12/09 08:23:24;;;;;;;58.97;14.20;;;1.20;99.90;;;;;;5010560;28;20544;-68
2021/12/09 08:25:52;;;;;;;30.30;15.00;;;1.20;99.90;;;;;;5027734;28;20489;-68
2021/12/09 08:28:19;;;;;;;51.77;14.93;;;1.20;99.90;;;;;;5020391;28;21036;-70
2021/12/09 08:30:46;;;;;;;61.63;15.20;;;1.30;99.90;;;;;;5010735;28;20446;-68
2021/12/09 08:33:13;;;;;;;79.20;14.13;;;1.30;99.90;;;;;;5010215;28;20454;-68
2021/12/09 08:35:40;;;;;;;113.87;14.70;;;1.40;99.90;;;;;;5025025;28;20547;-71
2021/12/09 08:38:09;;;;;;;33.50;13.70;;;1.50;99.90;;;;;;5020746;28;20458;-68
2021/12/09 08:40:36;;;;;;;68.67;14.27;;;1.40;99.90;;;;;;5025752;28;20492;-68
2021/12/09 08:43:03;;;;;;;114.10;16.23;;;1.40;99.90;;;;;;5025615;28;20454;-69
2021/12/09 08:45:30;;;;;;;59.70;14.77;;;1.50;99.90;;;;;;5013336;28;20481;-70
2021/12/09 08:47:57;;;;;;;121.23;15.33;;;1.50;99.90;;;;;;5016037;28;20486;-69
2021/12/09 08:50:27;;;;;;;130.90;15.63;;;1.60;99.90;;;;;;5028401;28;20522;-69
2021/12/09 08:52:54;;;;;;;96.73;13.03;;;1.60;99.90;;;;;;5018680;28;20488;-72
2021/12/09 08:55:22;;;;;;;35.00;12.47;;;1.70;99.90;;;;;;5018596;28;20876;-70
2021/12/09 08:57:49;;;;;;;34.13;11.27;;;1.80;99.90;;;;;;5023113;28;20508;-70
2021/12/09 09:00:18;;;;;;;32.73;12.50;;;1.90;99.90;;;;;;5018169;28;20461;-67
2021/12/09 09:02:46;;;;;;;34.70;11.40;;;1.90;99.90;;;;;;5024551;28;20929;-66
2021/12/09 09:05:14;;;;;;;48.60;12.50;;;2.00;99.90;;;;;;5014617;28;20869;-66
2021/12/09 09:07:42;;;;;;;77.63;17.30;;;1.90;99.90;;;;;;5033216;28;20530;-66
2021/12/09 09:10:10;;;;;;;82.97;18.70;;;1.90;99.90;;;;;;5027990;28;20499;-67
2021/12/09 09:12:38;;;;;;;112.57;14.33;;;1.80;99.90;;;;;;5016109;28;20450;-66
2021/12/09 09:15:08;;;;;;;39.87;12.57;;;1.80;99.90;;;;;;5024798;28;20469;-67
2021/12/09 09:17:34;;;;;;;145.53;14.20;;;1.70;99.90;;;;;;5014730;28;20447;-66
2021/12/09 09:20:01;;;;;;;100.93;14.50;;;1.60;99.90;;;;;;5026594;28;20507;-67
2021/12/09 09:22:27;;;;;;;87.17;13.70;;;1.50;99.90;;;;;;5018452;28;20457;-66
2021/12/09 09:24:54;;;;;;;86.13;12.50;;;1.50;99.90;;;;;;5013331;28;20505;-67
2021/12/09 09:27:21;;;;;;;96.50;14.37;;;1.50;99.90;;;;;;5029462;28;20887;-67
2021/12/09 09:29:49;;;;;;;68.03;21.90;;;1.50;99.90;;;;;;5020879;28;20870;-66
2021/12/09 09:32:15;;;;;;;67.07;31.53;;;1.40;99.90;;;;;;5020187;28;20507;-67
2021/12/09 09:34:42;;;;;;;41.27;19.73;;;1.50;99.90;;;;;;5024387;28;20527;-67
2021/12/09 09:37:10;;;;;;;42.15;17.80;;;1.60;99.90;;;;;;5026333;28;20445;-67
2021/12/09 09:39:41;;;;;;;35.60;13.63;;;1.70;99.90;;;;;;5020256;28;20286;-67
2021/12/09 09:42:31;;;;;;;39.07;14.40;;;1.90;99.90;;;;;;5022075;28;20484;-66
2021/12/09 09:46:11;;;;;;;25.63;13.00;;;1.90;99.90;;;;;;5129220;27;20562;-66
2021/12/09 09:48:39;;;;;;;22.53;13.40;;;2.00;99.90;;;;;;5123948;28;20457;-65
2021/12/09 09:51:07;;;;;;;31.33;13.80;;;2.00;99.90;;;;;;5120988;28;20453;-66
2021/12/09 09:53:35;;;;;;;31.60;16.33;;;1.90;99.90;;;;;;5125752;28;20461;-66
2021/12/09 09:56:04;;;;;;;29.43;16.90;;;1.80;99.90;;;;;;5126613;27;20450;-66
2021/12/09 09:58:31;;;;;;;19.97;12.10;;;1.90;99.90;;;;;;5124281;28;20959;-66
2021/12/09 10:00:58;;;;;;;20.20;12.40;;;1.90;99.90;;;;;;5128875;27;20510;-66
2021/12/09 10:03:29;;;;;;;23.57;13.10;;;2.00;99.90;;;;;;5128566;27;20932;-66
2021/12/09 10:05:59;;;;;;;25.10;13.00;;;2.00;99.90;;;;;;5127370;27;20485;-66
2021/12/09 10:08:26;;;;;;;22.13;12.73;;;2.20;99.90;;;;;;5128140;27;20964;-66
2021/12/09 10:10:52;;;;;;;20.87;11.80;;;2.40;99.90;;;;;;5126645;27;20510;-66
2021/12/09 10:13:21;;;;;;;19.30;12.00;;;2.50;99.90;;;;;;5114856;28;20449;-66
2021/12/09 10:15:49;;;;;;;23.30;12.07;;;2.50;99.90;;;;;;5127852;27;20475;-65
2021/12/09 10:18:34;;;;;;;19.37;11.50;;;2.60;99.90;;;;;;5128096;27;20494;-66
2021/12/09 10:21:02;;;;;;;22.20;11.70;;;2.60;99.90;;;;;;5128733;27;20453;-66
2021/12/09 10:23:37;;;;;;;17.47;12.00;;;2.60;99.90;;;;;;5129048;27;20869;-66
2021/12/09 10:26:14;;;;;;;23.07;12.80;;;2.50;99.90;;;;;;5127173;27;20983;-66
2021/12/09 10:28:45;;;;;;;24.73;12.40;;;2.60;99.90;;;;;;5112097;28;20555;-67
2021/12/09 10:31:15;;;;;;;21.73;13.10;;;2.60;99.90;;;;;;5125226;28;20532;-66
2021/12/09 10:34:06;;;;;;;20.63;11.77;;;2.60;99.90;;;;;;5116901;27;20477;-66
2021/12/09 10:36:55;;;;;;;20.67;11.83;;;2.60;99.90;;;;;;5111091;28;20449;-67
2021/12/09 10:39:37;;;;;;;27.07;12.00;;;2.60;99.90;;;;;;5115812;28;20471;-66
2021/12/09 10:42:07;;;;;;;17.37;11.40;;;2.50;99.90;;;;;;5125730;27;20467;-66
2021/12/09 10:44:51;;;;;;;24.17;11.70;;;2.50;99.90;;;;;;5126927;27;20964;-69
2021/12/09 10:47:32;;;;;;;18.70;10.83;;;2.60;99.90;;;;;;5127946;27;20444;-69
2021/12/09 10:50:07;;;;;;;19.47;9.93;;;2.60;99.90;;;;;;5128316;27;20463;-72
2021/12/09 10:52:41;;;;;;;15.50;9.63;;;2.70;99.90;;;;;;5128046;27;20457;-69
2021/12/09 10:55:24;;;;;;;22.03;9.67;;;2.70;99.90;;;;;;5122732;27;20465;-69
2021/12/09 10:57:56;;;;;;;19.03;9.83;;;2.80;99.90;;;;;;5106160;28;20450;-69
2021/12/09 11:00:31;;;;;;;23.33;8.93;;;2.80;99.90;;;;;;5112970;28;20526;-71
2021/12/09 11:03:00;;;;;;;15.33;7.80;;;3.00;99.90;;;;;;5113316;28;20529;-69
2021/12/09 11:05:29;;;;;;;13.57;7.60;;;3.00;99.90;;;;;;5113439;28;20489;-69
2021/12/09 11:08:12;;;;;;;15.43;7.97;;;3.00;99.90;;;;;;5113475;28;20930;-70
2021/12/09 11:10:45;;;;;;;18.93;8.20;;;3.00;99.90;;;;;;5113925;28;20499;-69
2021/12/09 11:13:12;;;;;;;10.97;6.70;;;3.10;99.90;;;;;;5111796;28;20450;-69
2021/12/09 11:15:53;;;;;;;16.47;7.00;;;3.10;99.90;;;;;;5113403;28;20523;-69
2021/12/09 11:18:31;;;;;;;14.17;6.80;;;3.20;99.90;;;;;;5111806;28;20945;-68
2021/12/09 11:21:01;;;;;;;14.67;7.60;;;3.30;99.90;;;;;;5107275;28;20453;-68
2021/12/09 11:23:31;;;;;;;10.10;6.20;;;3.30;99.90;;;;;;5113864;28;20476;-69
2021/12/09 11:26:19;;;;;;;13.23;7.37;;;3.40;99.90;;;;;;5110550;28;20908;-68
2021/12/09 11:28:54;;;;;;;15.27;8.00;;;3.40;99.90;;;;;;5111119;28;20482;-69
2021/12/09 11:31:23;;;;;;;15.30;7.23;;;3.50;99.90;;;;;;5110460;28;20566;-69
2021/12/09 11:33:57;;;;;;;16.60;7.97;;;3.50;99.90;;;;;;5114143;28;20462;-68
2021/12/09 11:39:26;;;;;;;18.03;7.00;;;3.60;99.90;;;;;;5088373;28;20529;-69
2021/12/09 11:41:53;;;;;;;13.47;5.70;;;3.90;99.90;;;;;;5073143;28;20513;-68
2021/12/09 11:44:20;;;;;;;9.13;5.60;;;4.10;99.90;;;;;;5065939;28;21022;-68
2021/12/09 11:46:49;;;;;;;10.50;5.50;;;4.30;99.90;;;;;;5063556;28;20851;-69
2021/12/09 11:49:16;;;;;;;9.50;5.10;;;4.60;99.90;;;;;;5048032;28;20959;-69
2021/12/09 11:51:43;;;;;;;19.60;5.90;;;4.90;99.90;;;;;;5055690;28;21108;-69
2021/12/09 11:54:11;;;;;;;14.10;5.70;;;5.30;99.90;;;;;;5056566;28;20538;-69
2021/12/09 11:57:00;;;;;;;12.70;4.73;;;5.70;99.90;;;;;;5047866;28;20452;-69
2021/12/09 12:11:17;;;;;;;13.27;5.10;;;6.90;99.90;;;;;;5046570;28;20447;-69
2021/12/09 12:13:51;;;;;;;11.13;4.60;;;6.80;99.90;;;;;;5057311;28;20477;-71
2021/12/09 12:19:29;;;;;;;9.43;4.97;;;6.40;99.90;;;;;;5046714;28;20483;-70
2021/12/09 12:25:04;;;;;;;13.20;4.90;;;5.90;99.90;;;;;;5052865;28;20470;-69
2021/12/09 12:27:45;;;;;;;11.00;4.47;;;6.10;99.90;;;;;;5059449;28;20445;-70
2021/12/09 12:30:32;;;;;;;21.03;7.67;;;6.10;99.90;;;;;;5065349;28;20448;-69
2021/12/09 12:33:21;;;;;;;14.07;4.83;;;6.10;99.90;;;;;;5042956;28;20449;-69
2021/12/09 12:36:17;;;;;;;11.77;4.67;;;5.90;99.90;;;;;;5058760;28;20448;-69
2021/12/09 12:39:06;;;;;;;11.70;4.23;;;5.60;99.90;;;;;;5067259;28;20533;-69
2021/12/09 12:41:33;;;;;;;7.77;4.20;;;5.20;99.90;;;;;;5048840;28;20535;-69
2021/12/09 12:44:06;;;;;;;12.40;4.50;;;4.90;99.90;;;;;;5047321;28;20477;-68
2021/12/09 12:46:51;;;;;;;10.60;4.30;;;4.80;99.90;;;;;;5048249;28;20457;-69
2021/12/09 12:49:32;;;;;;;11.27;5.10;;;4.70;99.90;;;;;;5041563;28;20445;-69
2021/12/09 12:52:05;;;;;;;10.07;4.77;;;4.70;99.90;;;;;;5049939;28;20467;-69
2021/12/09 12:57:32;;;;;;;9.00;4.93;;;4.50;99.90;;;;;;5046923;28;20506;-70
2021/12/09 13:00:18;;;;;;;13.27;4.70;;;4.60;99.90;;;;;;5053077;28;20452;-70
2021/12/09 13:03:11;;;;;;;11.27;4.67;;;4.60;99.90;;;;;;5033515;28;20449;-69
2021/12/09 13:05:51;;;;;;;12.23;4.90;;;4.60;99.90;;;;;;5033350;28;20469;-70
2021/12/09 13:08:45;;;;;;;9.70;3.87;;;4.60;99.90;;;;;;5037286;28;20463;-70
2021/12/09 13:11:17;;;;;;;9.53;4.30;;;4.60;99.90;;;;;;5034872;28;20833;-69
2021/12/09 13:13:52;;;;;;;10.93;4.77;;;4.60;99.90;;;;;;5033342;28;20465;-69
2021/12/09 13:16:22;;;;;;;7.40;3.93;;;4.60;99.90;;;;;;5032017;28;20480;-69
2021/12/09 13:19:05;;;;;;;12.83;4.37;;;4.50;99.90;;;;;;5047437;28;20572;-69
2021/12/09 13:21:34;;;;;;;12.33;4.60;;;4.50;99.90;;;;;;5039991;28;20453;-69